createdAt,value
2019-05-11T00:01:14.555Z,88.72
2019-05-11T00:03:43.607Z,87.13
2019-05-11T00:06:12.713Z,88.38
2019-05-11T00:08:41.723Z,88.07
2019-05-11T00:11:10.851Z,88.48
2019-05-11T00:13:39.853Z,88.77
2019-05-11T00:16:08.977Z,89.72
2019-05-11T00:18:38.208Z,89.82
2019-05-11T00:21:07.284Z,91.01
2019-05-11T00:23:36.424Z,91.16
2019-05-11T00:26:06.662Z,91.28
2019-05-11T00:28:36.805Z,91.80
2019-05-11T00:31:05.822Z,92.12
2019-05-11T00:33:34.939Z,94.26
2019-05-11T00:36:04.051Z,95.25
2019-05-11T00:38:33.987Z,93.91
2019-05-11T00:41:03.002Z,95.14
2019-05-11T00:43:32.117Z,94.44
2019-05-11T00:46:02.254Z,95.01
2019-05-11T00:48:31.475Z,96.37
2019-05-11T00:51:00.594Z,97.71
2019-05-11T00:53:29.607Z,97.45
2019-05-11T00:55:58.726Z,97.44
2019-05-11T00:58:27.847Z,97.21
2019-05-11T01:00:56.964Z,97.70
2019-05-11T01:03:27.196Z,99.44
2019-05-11T01:05:56.335Z,98.64
2019-05-11T01:08:25.578Z,98.02
2019-05-11T01:10:54.716Z,97.52
2019-05-11T01:13:24.069Z,96.65
2019-05-11T01:15:53.197Z,96.00
2019-05-11T01:18:22.414Z,94.51
2019-05-11T01:20:51.430Z,94.33
2019-05-11T01:23:20.535Z,94.43
2019-05-11T01:25:49.858Z,94.92
2019-05-11T01:28:18.873Z,94.93
2019-05-11T01:30:48.197Z,95.17
2019-05-11T01:33:17.207Z,95.65
2019-05-11T01:35:46.203Z,95.57
2019-05-11T01:38:15.320Z,96.08
2019-05-11T01:40:57.723Z,96.14
2019-05-11T01:43:15.145Z,95.98
2019-05-11T01:45:44.222Z,96.08
2019-05-11T01:48:13.314Z,96.94
2019-05-11T01:50:42.281Z,97.74
2019-05-11T01:53:11.475Z,98.67
2019-05-11T01:55:40.483Z,99.40
2019-05-11T01:58:09.598Z,100.00
2019-05-11T02:00:38.614Z,100.00
2019-05-11T02:03:07.734Z,100.00
2019-05-11T02:05:36.899Z,100.00
2019-05-11T02:08:05.958Z,100.00
2019-05-11T02:10:34.980Z,100.00
2019-05-11T02:13:04.080Z,100.00
2019-05-11T02:15:33.113Z,100.00
2019-05-11T02:18:02.332Z,100.00
2019-05-11T02:20:31.363Z,100.00
2019-05-11T02:23:00.335Z,100.00
2019-05-11T02:25:29.407Z,100.00
2019-05-11T02:27:58.485Z,100.00
2019-05-11T02:30:27.613Z,100.00
2019-05-11T02:32:56.513Z,100.00
2019-05-11T02:35:25.633Z,100.00
2019-05-11T02:37:54.752Z,100.00
2019-05-11T02:40:23.969Z,100.00
2019-05-11T02:42:53.085Z,100.00
2019-05-11T02:45:36.012Z,100.00
2019-05-11T02:48:05.148Z,100.00
2019-05-11T02:50:34.854Z,100.00
2019-05-11T02:53:04.492Z,100.00
2019-05-11T02:55:34.832Z,100.00
2019-05-11T02:58:04.553Z,100.00
2019-05-11T03:00:40.948Z,100.00
2019-05-11T03:03:10.153Z,100.00
2019-05-11T03:05:40.402Z,100.00
2019-05-11T03:08:10.634Z,100.00
2019-05-11T03:10:39.756Z,100.00
2019-05-11T03:13:08.957Z,100.00
2019-05-11T03:15:38.087Z,100.00
2019-05-11T03:18:07.103Z,99.50
2019-05-11T03:20:37.352Z,99.21
2019-05-11T03:23:06.253Z,99.09
2019-05-11T03:25:35.301Z,98.58
2019-05-11T03:28:04.593Z,98.16
2019-05-11T03:30:33.805Z,97.66
2019-05-11T03:33:02.834Z,98.42
2019-05-11T03:35:31.855Z,98.94
2019-05-11T03:38:01.075Z,97.51
2019-05-11T03:40:30.149Z,96.80
2019-05-11T03:42:59.160Z,96.88
2019-05-11T03:45:29.635Z,96.51
2019-05-11T03:47:58.650Z,95.63
2019-05-11T03:50:27.864Z,95.40
2019-05-11T03:52:56.876Z,95.58
2019-05-11T03:55:25.892Z,94.05
2019-05-11T03:57:55.110Z,92.90
2019-05-11T04:00:24.335Z,91.70
2019-05-11T04:02:53.348Z,90.56
2019-05-11T04:05:22.360Z,90.76
2019-05-11T04:07:51.375Z,90.04
2019-05-11T04:10:24.916Z,89.91
2019-05-11T04:12:51.045Z,89.15
2019-05-11T04:15:20.157Z,88.20
2019-05-11T04:17:49.269Z,87.26
2019-05-11T04:20:18.700Z,87.52
2019-05-11T04:22:47.815Z,86.07
2019-05-11T04:25:16.828Z,85.37
2019-05-11T04:27:45.838Z,84.11
2019-05-11T04:30:14.836Z,84.61
2019-05-11T04:32:43.875Z,81.58
2019-05-11T04:35:12.989Z,80.97
2019-05-11T04:37:42.101Z,80.18
2019-05-11T04:40:11.524Z,79.50
2019-05-11T04:42:54.012Z,78.98
2019-05-11T04:45:11.096Z,77.54
2019-05-11T04:47:40.087Z,79.27
2019-05-11T04:50:09.439Z,77.01
2019-05-11T04:52:38.447Z,75.35
2019-05-11T04:55:07.434Z,73.71
2019-05-11T04:57:36.570Z,74.05
2019-05-11T05:00:07.629Z,72.24
2019-05-11T05:02:36.641Z,71.96
2019-05-11T05:05:06.066Z,73.15
2019-05-11T05:07:35.076Z,72.79
2019-05-11T05:10:04.916Z,73.58
2019-05-11T05:12:33.924Z,70.90
2019-05-11T05:15:03.048Z,71.07
2019-05-11T05:17:32.052Z,69.94
2019-05-11T05:20:02.093Z,70.57
2019-05-11T05:22:31.218Z,68.85
2019-05-11T05:25:00.223Z,68.58
2019-05-11T05:27:30.234Z,68.59
2019-05-11T05:29:59.172Z,67.91
2019-05-11T05:32:28.291Z,68.94
2019-05-11T05:34:59.193Z,67.83
2019-05-11T05:37:28.066Z,68.40
2019-05-11T05:39:57.069Z,69.13
2019-05-11T05:42:26.108Z,69.62
2019-05-11T05:44:55.203Z,70.43
2019-05-11T05:47:24.310Z,70.20
2019-05-11T05:49:53.336Z,70.52
2019-05-11T05:52:22.201Z,67.46
2019-05-11T05:54:52.586Z,66.80
2019-05-11T05:57:21.565Z,64.83
2019-05-11T05:59:50.592Z,64.05
2019-05-11T06:02:19.731Z,65.69
2019-05-11T06:04:48.851Z,65.92
2019-05-11T06:07:17.967Z,64.29
2019-05-11T06:09:46.970Z,65.29
2019-05-11T06:12:16.002Z,60.87
2019-05-11T06:14:46.403Z,60.50
2019-05-11T06:17:15.535Z,60.20
2019-05-11T06:19:44.574Z,59.09
2019-05-11T06:22:13.698Z,58.63
2019-05-11T06:24:42.805Z,57.50
2019-05-11T06:27:11.941Z,57.64
2019-05-11T06:29:41.043Z,57.52
2019-05-11T06:32:10.154Z,57.49
2019-05-11T06:34:39.166Z,56.22
2019-05-11T06:37:08.386Z,56.04
2019-05-11T06:39:37.474Z,54.74
2019-05-11T06:42:07.541Z,53.42
2019-05-11T06:44:36.661Z,53.48
2019-05-11T06:47:05.671Z,52.27
2019-05-11T06:49:34.790Z,53.09
2019-05-11T06:52:04.008Z,53.85
2019-05-11T06:54:33.126Z,54.26
2019-05-11T06:57:02.238Z,54.04
2019-05-11T06:59:31.255Z,52.96
2019-05-11T07:02:00.376Z,52.34
2019-05-11T07:04:29.459Z,50.79
2019-05-11T07:06:58.475Z,49.66
2019-05-11T07:09:27.622Z,51.50
2019-05-11T07:11:56.756Z,48.95
2019-05-11T07:14:26.197Z,46.06
2019-05-11T07:16:55.375Z,47.66
2019-05-11T07:19:24.494Z,49.20
2019-05-11T07:21:53.487Z,46.78
2019-05-11T07:24:22.654Z,45.36
2019-05-11T07:26:51.713Z,44.17
2019-05-11T07:29:20.733Z,46.46
2019-05-11T07:31:49.765Z,45.27
2019-05-11T07:34:18.886Z,43.96
2019-05-11T07:36:48.002Z,41.76
2019-05-11T07:39:18.654Z,40.26
2019-05-11T07:41:48.041Z,36.91
2019-05-11T07:44:19.105Z,36.53
2019-05-11T07:46:48.407Z,40.20
2019-05-11T07:49:18.004Z,38.90
2019-05-11T07:51:48.230Z,40.80
2019-05-11T07:54:18.759Z,38.87
2019-05-11T07:56:49.728Z,38.75
2019-05-11T07:59:18.748Z,36.52
2019-05-11T08:01:48.037Z,32.58
2019-05-11T08:04:18.346Z,33.88
2019-05-11T08:06:47.995Z,32.42
2019-05-11T08:09:18.706Z,33.82
2019-05-11T08:11:48.009Z,31.22
2019-05-11T08:14:18.257Z,31.44
2019-05-11T08:16:48.126Z,32.20
2019-05-11T08:19:18.529Z,28.42
2019-05-11T08:21:48.163Z,28.38
2019-05-11T08:24:19.275Z,34.09
2019-05-11T08:26:48.237Z,32.71
2019-05-11T08:29:18.575Z,32.58
2019-05-11T08:31:48.810Z,34.41
2019-05-11T08:34:18.182Z,29.77
2019-05-11T08:36:47.995Z,31.03
2019-05-11T08:39:18.263Z,35.06
2019-05-11T08:41:48.752Z,35.36
2019-05-11T08:44:18.256Z,37.86
2019-05-11T08:46:47.938Z,39.87
2019-05-11T08:49:19.072Z,42.81
2019-05-11T08:51:47.962Z,45.35
2019-05-11T08:54:18.356Z,46.72
2019-05-11T08:56:48.626Z,46.55
2019-05-11T08:59:18.668Z,47.50
2019-05-11T09:01:48.535Z,46.11
2019-05-11T09:04:18.363Z,45.65
2019-05-11T09:06:48.060Z,46.11
2019-05-11T09:09:18.063Z,48.10
2019-05-11T09:11:48.153Z,48.01
2019-05-11T09:14:18.827Z,48.76
2019-05-11T09:16:48.931Z,48.63
2019-05-11T09:19:19.212Z,48.52
2019-05-11T09:21:48.363Z,49.33
2019-05-11T09:24:18.911Z,49.14
2019-05-11T09:26:48.405Z,48.45
2019-05-11T09:29:17.986Z,50.52
2019-05-11T09:31:48.735Z,50.32
2019-05-11T09:34:18.305Z,49.21
2019-05-11T09:36:48.011Z,47.71
2019-05-11T09:39:17.727Z,45.67
2019-05-11T09:41:48.804Z,44.60
2019-05-11T09:44:18.366Z,44.22
2019-05-11T09:46:47.945Z,43.95
2019-05-11T09:49:18.496Z,45.76
2019-05-11T09:51:48.775Z,47.29
2019-05-11T09:54:18.379Z,47.28
2019-05-11T09:56:48.601Z,46.15
2019-05-11T09:59:18.109Z,47.02
2019-05-11T10:01:48.362Z,47.22
2019-05-11T10:04:19.049Z,47.86
2019-05-11T10:06:48.254Z,49.26
2019-05-11T10:09:18.683Z,48.70
2019-05-11T10:11:48.137Z,49.23
2019-05-11T10:14:18.791Z,48.97
2019-05-11T10:16:49.125Z,49.25
2019-05-11T10:19:18.774Z,52.47
2019-05-11T10:21:48.695Z,52.72
2019-05-11T10:24:20.064Z,52.35
2019-05-11T10:26:48.987Z,51.50
2019-05-11T10:29:18.420Z,50.39
2019-05-11T10:31:48.193Z,50.28
2019-05-11T10:34:17.956Z,51.25
2019-05-11T10:36:48.589Z,49.92
2019-05-11T10:39:18.717Z,50.30
2019-05-11T10:41:48.187Z,50.91
2019-05-11T10:44:18.775Z,50.25
2019-05-11T10:46:48.427Z,50.45
2019-05-11T10:49:18.505Z,50.42
2019-05-11T10:51:48.582Z,51.41
2019-05-11T10:54:18.668Z,53.17
2019-05-11T10:56:48.214Z,52.14
2019-05-11T10:59:18.844Z,52.85
2019-05-11T11:01:48.454Z,52.70
2019-05-11T11:04:18.337Z,51.63
2019-05-11T11:06:48.484Z,49.85
2019-05-11T11:09:17.996Z,47.03
2019-05-11T11:11:48.863Z,43.71
2019-05-11T11:14:18.175Z,43.72
2019-05-11T11:16:47.917Z,45.65
2019-05-11T11:19:18.319Z,47.96
2019-05-11T11:21:48.774Z,50.53
2019-05-11T11:24:18.173Z,50.64
2019-05-11T11:26:48.742Z,51.38
2019-05-11T11:29:18.158Z,50.03
2019-05-11T11:31:48.161Z,48.29
2019-05-11T11:34:18.824Z,49.18
2019-05-11T11:36:48.298Z,51.10
2019-05-11T11:39:18.752Z,53.49
2019-05-11T11:41:48.546Z,54.37
2019-05-11T11:44:18.463Z,55.55
2019-05-11T11:46:54.949Z,56.89
2019-05-11T11:49:19.595Z,57.83
2019-05-11T11:51:48.711Z,58.83
2019-05-11T11:54:18.340Z,59.43
2019-05-11T11:56:48.492Z,60.41
2019-05-11T11:59:17.988Z,60.51
2019-05-11T12:01:48.806Z,60.97
2019-05-11T12:04:18.848Z,60.98
2019-05-11T12:06:49.011Z,61.57
2019-05-11T12:09:18.345Z,61.79
2019-05-11T12:11:48.627Z,61.25
2019-05-11T12:14:18.723Z,62.30
2019-05-11T12:16:52.277Z,63.10
2019-05-11T12:19:18.830Z,65.21
2019-05-11T12:21:48.511Z,67.96
2019-05-11T12:24:18.730Z,71.18
2019-05-11T12:26:48.278Z,72.60
2019-05-11T12:29:18.887Z,71.92
2019-05-11T12:31:48.602Z,71.59
2019-05-11T12:34:18.036Z,71.66
2019-05-11T12:36:47.958Z,71.25
2019-05-11T12:39:19.148Z,71.22
2019-05-11T12:41:48.115Z,70.34
2019-05-11T12:44:18.761Z,69.84
2019-05-11T12:46:48.888Z,70.00
2019-05-11T12:49:18.753Z,69.58
2019-05-11T12:51:48.750Z,69.78
2019-05-11T12:54:19.128Z,69.40
2019-05-11T12:56:48.964Z,69.46
2019-05-11T12:59:18.794Z,69.69
2019-05-11T13:01:49.537Z,71.08
2019-05-11T13:04:18.669Z,72.52
2019-05-11T13:06:47.998Z,73.05
2019-05-11T13:09:18.318Z,73.07
2019-05-11T13:11:48.355Z,73.97
2019-05-11T13:14:18.515Z,74.55
2019-05-11T13:16:49.463Z,75.78
2019-05-11T13:19:18.479Z,75.32
2019-05-11T13:21:48.691Z,75.63
2019-05-11T13:24:18.718Z,76.14
2019-05-11T13:26:48.519Z,76.48
2019-05-11T13:29:19.240Z,76.70
2019-05-11T13:31:52.241Z,75.74
2019-05-11T13:34:22.404Z,77.61
2019-05-11T13:36:51.803Z,76.71
2019-05-11T13:39:22.128Z,76.21
2019-05-11T13:41:51.161Z,76.27
2019-05-11T13:44:20.252Z,75.84
2019-05-11T13:46:49.277Z,74.96
2019-05-11T13:49:19.959Z,74.81
2019-05-11T13:51:48.954Z,74.74
2019-05-11T13:54:18.512Z,72.54
2019-05-11T13:56:48.336Z,69.56
2019-05-11T13:59:18.850Z,66.75
2019-05-11T14:01:48.206Z,65.34
2019-05-11T14:04:18.166Z,65.27
2019-05-11T14:06:49.702Z,64.27
2019-05-11T14:09:19.420Z,62.76
2019-05-11T14:11:48.435Z,59.98
2019-05-11T14:14:18.377Z,61.27
2019-05-11T14:16:48.509Z,61.46
2019-05-11T14:19:18.840Z,61.66
2019-05-11T14:21:48.958Z,59.96
2019-05-11T14:24:18.471Z,58.87
2019-05-11T14:26:48.939Z,60.00
2019-05-11T14:29:18.182Z,59.60
2019-05-11T14:31:48.780Z,62.44
2019-05-11T14:34:18.336Z,64.40
2019-05-11T14:36:48.143Z,63.19
2019-05-11T14:39:19.016Z,59.96
2019-05-11T14:41:48.809Z,57.22
2019-05-11T14:44:18.317Z,54.59
2019-05-11T14:46:47.905Z,54.50
2019-05-11T14:49:18.466Z,53.13
2019-05-11T14:51:48.481Z,52.96
2019-05-11T14:54:18.725Z,53.16
2019-05-11T14:56:48.277Z,55.48
2019-05-11T14:59:18.419Z,58.83
2019-05-11T15:01:49.039Z,61.00
2019-05-11T15:04:18.351Z,60.24
2019-05-11T15:06:49.043Z,61.56
2019-05-11T15:09:18.460Z,63.42
2019-05-11T15:11:48.177Z,64.60
2019-05-11T15:14:21.537Z,66.55
2019-05-11T15:16:49.096Z,67.64
2019-05-11T15:19:18.679Z,68.00
2019-05-11T15:21:47.944Z,68.93
2019-05-11T15:24:18.481Z,70.02
2019-05-11T15:26:48.665Z,71.25
2019-05-11T15:29:18.529Z,71.19
2019-05-11T15:31:48.555Z,71.90
2019-05-11T15:34:18.942Z,70.62
2019-05-11T15:36:49.705Z,71.05
2019-05-11T15:39:18.707Z,71.49
2019-05-11T15:41:48.103Z,72.23
2019-05-11T15:44:18.249Z,73.08
2019-05-11T15:46:48.085Z,73.82
2019-05-11T15:49:18.004Z,74.41
2019-05-11T15:51:48.841Z,74.82
2019-05-11T15:54:18.636Z,75.55
2019-05-11T15:56:47.843Z,75.96
2019-05-11T15:59:16.965Z,76.96
2019-05-11T16:01:48.747Z,77.75
2019-05-11T16:04:18.135Z,78.15
2019-05-11T16:06:47.362Z,78.86
2019-05-11T16:09:18.384Z,79.41
2019-05-11T16:11:48.272Z,80.16
2019-05-11T16:14:17.354Z,80.51
2019-05-11T16:16:48.031Z,81.06
2019-05-11T16:19:19.140Z,81.57
2019-05-11T16:21:47.723Z,81.89
2019-05-11T16:24:17.134Z,82.05
2019-05-11T16:26:49.646Z,81.93
2019-05-11T16:29:19.010Z,81.72
2019-05-11T16:31:48.341Z,82.21
2019-05-11T16:34:18.435Z,82.74
2019-05-11T16:36:48.072Z,83.13
2019-05-11T16:39:18.711Z,82.99
2019-05-11T16:41:48.668Z,82.98
2019-05-11T16:44:18.500Z,82.98
2019-05-11T16:46:50.640Z,83.06
2019-05-11T16:49:28.384Z,83.51
2019-05-11T16:51:49.068Z,83.92
2019-05-11T16:54:18.183Z,83.90
2019-05-11T16:56:48.658Z,84.16
2019-05-11T16:59:18.217Z,84.74
2019-05-11T17:01:48.229Z,85.24
2019-05-11T17:04:17.723Z,85.87
2019-05-11T17:06:48.643Z,86.65
2019-05-11T17:09:17.973Z,87.33
2019-05-11T17:11:49.023Z,87.59
2019-05-11T17:14:18.756Z,87.26
2019-05-11T17:16:48.302Z,86.90
2019-05-11T17:19:18.410Z,86.96
2019-05-11T17:21:47.709Z,87.38
2019-05-11T17:24:16.787Z,88.02
2019-05-11T17:26:47.834Z,88.20
2019-05-11T17:29:18.492Z,88.13
2019-05-11T17:31:48.477Z,88.54
2019-05-11T17:34:20.788Z,88.80
2019-05-11T17:36:50.230Z,89.36
2019-05-11T17:39:19.377Z,89.32
2019-05-11T17:41:48.590Z,89.77
2019-05-11T17:44:18.491Z,90.88
2019-05-11T17:46:47.755Z,91.66
2019-05-11T17:49:18.485Z,92.53
2019-05-11T17:51:48.430Z,93.77
2019-05-11T17:54:18.031Z,94.32
2019-05-11T17:56:48.324Z,94.65
2019-05-11T17:59:19.476Z,94.80
2019-05-11T18:01:48.265Z,95.40
2019-05-11T18:04:18.443Z,95.69
2019-05-11T18:06:47.714Z,96.20
2019-05-11T18:09:18.726Z,97.02
2019-05-11T18:11:48.212Z,97.45
2019-05-11T18:14:18.522Z,97.26
2019-05-11T18:16:48.175Z,97.25
2019-05-11T18:19:19.085Z,97.70
2019-05-11T18:21:48.735Z,97.39
2019-05-11T18:24:18.043Z,97.03
2019-05-11T18:26:48.769Z,97.13
2019-05-11T18:29:18.976Z,97.14
2019-05-11T18:31:48.633Z,97.36
2019-05-11T18:34:17.943Z,97.15
2019-05-11T18:36:48.568Z,97.04
2019-05-11T18:39:18.630Z,97.10
2019-05-11T18:41:48.368Z,97.16
2019-05-11T18:44:18.717Z,97.09
2019-05-11T18:46:48.139Z,97.45
2019-05-11T18:49:17.904Z,98.10
2019-05-11T18:51:48.299Z,98.50
2019-05-11T18:54:19.184Z,98.93
2019-05-11T18:56:48.942Z,99.23
2019-05-11T18:59:19.492Z,99.44
2019-05-11T19:01:48.798Z,99.74
2019-05-11T19:04:18.374Z,100.00
2019-05-11T19:06:48.505Z,100.00
2019-05-11T19:09:18.133Z,100.00
2019-05-11T19:11:48.862Z,100.00
2019-05-11T19:14:17.910Z,100.00
2019-05-11T19:16:49.009Z,100.00
2019-05-11T19:19:18.264Z,100.00
2019-05-11T19:21:48.188Z,100.00
2019-05-11T19:24:19.015Z,100.00
2019-05-11T19:26:51.238Z,100.00
2019-05-11T19:29:19.966Z,100.00
2019-05-11T19:31:48.928Z,100.00
2019-05-11T19:34:20.461Z,100.00
2019-05-11T19:36:48.617Z,100.00
2019-05-11T19:39:19.346Z,100.00
2019-05-11T19:41:48.514Z,100.00
2019-05-11T19:44:18.671Z,100.00
2019-05-11T19:46:48.097Z,100.00
2019-05-11T19:49:19.003Z,100.00
2019-05-11T19:51:48.710Z,100.00
2019-05-11T19:54:18.590Z,100.00
2019-05-11T19:56:52.163Z,100.00
2019-05-11T19:59:19.902Z,100.00
2019-05-11T20:01:49.013Z,100.00
2019-05-11T20:04:18.783Z,100.00
2019-05-11T20:06:48.012Z,100.00
2019-05-11T20:09:18.956Z,100.00
2019-05-11T20:11:48.218Z,100.00
2019-05-11T20:14:17.198Z,100.00
2019-05-11T20:16:47.822Z,100.00
2019-05-11T20:19:18.721Z,100.00
2019-05-11T20:21:48.548Z,100.00
2019-05-11T20:24:18.627Z,100.00
2019-05-11T20:26:47.810Z,100.00
2019-05-11T20:29:17.647Z,100.00
2019-05-11T20:31:46.687Z,100.00
2019-05-11T20:34:17.885Z,100.00
2019-05-11T20:36:48.109Z,100.00
2019-05-11T20:39:17.913Z,100.00
2019-05-11T20:41:47.772Z,100.00
2019-05-11T20:44:17.944Z,100.00
2019-05-11T20:46:48.649Z,100.00
2019-05-11T20:49:18.882Z,100.00
2019-05-11T20:51:48.521Z,100.00
2019-05-11T20:54:17.756Z,100.00
2019-05-11T20:56:47.884Z,100.00
2019-05-11T20:59:18.240Z,100.00
2019-05-11T21:01:47.960Z,100.00
2019-05-11T21:04:18.762Z,100.00
2019-05-11T21:06:47.693Z,100.00
2019-05-11T21:09:18.405Z,100.00
2019-05-11T21:11:47.939Z,100.00
2019-05-11T21:14:18.235Z,100.00
2019-05-11T21:16:47.895Z,100.00
2019-05-11T21:19:18.761Z,100.00
2019-05-11T21:21:53.452Z,100.00
2019-05-11T21:24:18.752Z,100.00
2019-05-11T21:26:48.042Z,100.00
2019-05-11T21:29:18.703Z,100.00
2019-05-11T21:31:48.510Z,100.00
2019-05-11T21:34:18.776Z,100.00
2019-05-11T21:36:48.438Z,100.00
2019-05-11T21:39:17.702Z,100.00
2019-05-11T21:41:47.805Z,100.00
2019-05-11T21:44:18.797Z,100.00
2019-05-11T21:46:47.421Z,100.00
2019-05-11T21:49:18.371Z,100.00
2019-05-11T21:51:52.310Z,100.00
2019-05-11T21:54:18.843Z,100.00
2019-05-11T21:56:48.752Z,100.00
2019-05-11T21:59:19.109Z,100.00
2019-05-11T22:01:48.620Z,100.00
2019-05-11T22:04:19.261Z,100.00
2019-05-11T22:06:48.472Z,100.00
2019-05-11T22:09:18.551Z,100.00
2019-05-11T22:11:48.688Z,100.00
2019-05-11T22:14:17.889Z,100.00
2019-05-11T22:16:48.018Z,100.00
2019-05-11T22:19:18.265Z,100.00
2019-05-11T22:21:49.479Z,100.00
2019-05-11T22:24:18.092Z,100.00
2019-05-11T22:26:47.256Z,100.00
2019-05-11T22:29:18.169Z,100.00
2019-05-11T22:31:48.671Z,100.00
2019-05-11T22:34:18.073Z,100.00
2019-05-11T22:36:47.971Z,100.00
2019-05-11T22:39:20.564Z,100.00
2019-05-11T22:41:48.213Z,100.00
2019-05-11T22:44:18.597Z,100.00
2019-05-11T22:46:47.925Z,100.00
2019-05-11T22:49:17.823Z,100.00
2019-05-11T22:51:46.827Z,100.00
2019-05-11T22:54:18.424Z,100.00
2019-05-11T22:56:48.143Z,100.00
2019-05-11T22:59:18.463Z,100.00
2019-05-11T23:01:48.342Z,100.00
2019-05-11T23:04:19.687Z,100.00
2019-05-11T23:06:48.075Z,100.00
2019-05-11T23:09:18.455Z,100.00
2019-05-11T23:11:48.238Z,100.00
2019-05-11T23:14:17.735Z,100.00
2019-05-11T23:16:49.913Z,100.00
2019-05-11T23:19:18.879Z,100.00
2019-05-11T23:21:48.203Z,100.00
2019-05-11T23:24:18.115Z,100.00
2019-05-11T23:26:48.026Z,100.00
2019-05-11T23:29:18.117Z,100.00
2019-05-11T23:31:47.765Z,100.00
2019-05-11T23:34:17.720Z,100.00
2019-05-11T23:36:48.702Z,100.00
2019-05-11T23:39:17.970Z,100.00
2019-05-11T23:41:48.236Z,100.00
2019-05-11T23:44:17.969Z,100.00
2019-05-11T23:46:48.262Z,100.00
2019-05-11T23:49:17.955Z,100.00
2019-05-11T23:51:47.814Z,100.00
2019-05-11T23:54:18.486Z,100.00
2019-05-11T23:56:47.970Z,100.00
2019-05-11T23:59:18.801Z,100.00
